Terminal Aerodrome Forecast
Issued by NWS Cleveland, OH

Home | Current Version | Previous Version | Graphics & Text | Print | Product List | Glossary On
Versions: 1 2 3 4 5 6 7 8 9 10 11 12 13 14 15 16 17 18 19 20 21
915
FTUS41 KCLE 192334
TAFYNG
TAF
KYNG 192334Z 2000/2024 20013KT P6SM SCT250
     FM201800 22013KT P6SM BKN015
     FM202300 22006KT P6SM OVC012=

USA.gov is the U.S. government's official web portal to all federal, state and local government web resources and services.